sensor_id;sensor_type;location;lat;lon;timestamp;P1;durP1;ratioP1;P2;durP2;ratioP2
49444;SDS011;35323;43.080;-81.378;2024-03-17T00:02:22;1.60;;;1.50;;
49444;SDS011;35323;43.080;-81.378;2024-03-17T00:04:48;3.45;;;1.08;;
49444;SDS011;35323;43.080;-81.378;2024-03-17T00:07:14;2.53;;;2.35;;
49444;SDS011;35323;43.080;-81.378;2024-03-17T00:09:41;1.42;;;1.33;;
49444;SDS011;35323;43.080;-81.378;2024-03-17T00:12:07;2.40;;;1.40;;
49444;SDS011;35323;43.080;-81.378;2024-03-17T00:14:34;1.50;;;1.40;;
49444;SDS011;35323;43.080;-81.378;2024-03-17T00:17:01;2.40;;;2.00;;
49444;SDS011;35323;43.080;-81.378;2024-03-17T00:19:27;2.70;;;1.60;;
49444;SDS011;35323;43.080;-81.378;2024-03-17T00:21:53;1.80;;;1.70;;
49444;SDS011;35323;43.080;-81.378;2024-03-17T00:24:19;0.73;;;0.73;;
49444;SDS011;35323;43.080;-81.378;2024-03-17T00:26:46;1.60;;;1.15;;
49444;SDS011;35323;43.080;-81.378;2024-03-17T00:29:13;1.80;;;1.27;;
49444;SDS011;35323;43.080;-81.378;2024-03-17T00:31:40;1.00;;;1.00;;
49444;SDS011;35323;43.080;-81.378;2024-03-17T00:34:07;1.40;;;1.17;;
49444;SDS011;35323;43.080;-81.378;2024-03-17T00:36:33;1.60;;;1.50;;
49444;SDS011;35323;43.080;-81.378;2024-03-17T00:38:59;1.63;;;1.30;;
49444;SDS011;35323;43.080;-81.378;2024-03-17T00:41:26;1.13;;;1.00;;
49444;SDS011;35323;43.080;-81.378;2024-03-17T00:43:52;1.00;;;1.00;;
49444;SDS011;35323;43.080;-81.378;2024-03-17T00:46:22;2.35;;;2.03;;
49444;SDS011;35323;43.080;-81.378;2024-03-17T00:48:48;1.50;;;1.35;;
49444;SDS011;35323;43.080;-81.378;2024-03-17T00:51:15;1.75;;;1.45;;
49444;SDS011;35323;43.080;-81.378;2024-03-17T00:53:42;1.08;;;0.95;;
49444;SDS011;35323;43.080;-81.378;2024-03-17T00:56:08;1.45;;;1.08;;
49444;SDS011;35323;43.080;-81.378;2024-03-17T00:58:34;1.90;;;1.20;;
49444;SDS011;35323;43.080;-81.378;2024-03-17T01:01:01;1.20;;;1.02;;
49444;SDS011;35323;43.080;-81.378;2024-03-17T01:03:27;1.50;;;1.40;;
49444;SDS011;35323;43.080;-81.378;2024-03-17T01:05:56;2.97;;;2.25;;
49444;SDS011;35323;43.080;-81.378;2024-03-17T01:08:22;1.55;;;1.45;;
49444;SDS011;35323;43.080;-81.378;2024-03-17T01:10:48;1.00;;;0.70;;
49444;SDS011;35323;43.080;-81.378;2024-03-17T01:13:18;1.35;;;1.10;;
49444;SDS011;35323;43.080;-81.378;2024-03-17T01:15:44;6.10;;;2.20;;
49444;SDS011;35323;43.080;-81.378;2024-03-17T01:18:10;1.35;;;1.20;;
49444;SDS011;35323;43.080;-81.378;2024-03-17T01:20:37;3.40;;;1.65;;
49444;SDS011;35323;43.080;-81.378;2024-03-17T01:23:04;1.13;;;1.05;;
49444;SDS011;35323;43.080;-81.378;2024-03-17T01:25:31;1.42;;;1.33;;
49444;SDS011;35323;43.080;-81.378;2024-03-17T01:28:01;2.15;;;1.45;;
49444;SDS011;35323;43.080;-81.378;2024-03-17T01:30:28;2.15;;;1.42;;
49444;SDS011;35323;43.080;-81.378;2024-03-17T01:32:54;3.97;;;2.47;;
49444;SDS011;35323;43.080;-81.378;2024-03-17T01:35:20;2.40;;;2.15;;
49444;SDS011;35323;43.080;-81.378;2024-03-17T01:37:46;1.42;;;1.33;;
49444;SDS011;35323;43.080;-81.378;2024-03-17T01:40:12;3.25;;;1.33;;
49444;SDS011;35323;43.080;-81.378;2024-03-17T01:42:39;1.30;;;1.20;;
49444;SDS011;35323;43.080;-81.378;2024-03-17T01:47:43;1.02;;;0.93;;
49444;SDS011;35323;43.080;-81.378;2024-03-17T01:50:10;2.50;;;2.33;;
49444;SDS011;35323;43.080;-81.378;2024-03-17T01:52:39;1.63;;;1.00;;
49444;SDS011;35323;43.080;-81.378;2024-03-17T01:55:05;1.00;;;1.00;;
49444;SDS011;35323;43.080;-81.378;2024-03-17T01:57:33;1.65;;;0.88;;
49444;SDS011;35323;43.080;-81.378;2024-03-17T01:59:59;1.60;;;1.23;;
49444;SDS011;35323;43.080;-81.378;2024-03-17T02:02:25;1.27;;;0.98;;
49444;SDS011;35323;43.080;-81.378;2024-03-17T02:04:52;3.80;;;0.57;;
49444;SDS011;35323;43.080;-81.378;2024-03-17T02:07:18;0.55;;;0.55;;
49444;SDS011;35323;43.080;-81.378;2024-03-17T02:09:45;0.60;;;0.60;;
49444;SDS011;35323;43.080;-81.378;2024-03-17T02:12:11;1.38;;;0.77;;
49444;SDS011;35323;43.080;-81.378;2024-03-17T02:14:38;0.50;;;0.50;;
49444;SDS011;35323;43.080;-81.378;2024-03-17T02:17:04;0.68;;;0.68;;
49444;SDS011;35323;43.080;-81.378;2024-03-17T02:19:30;2.00;;;0.60;;
49444;SDS011;35323;43.080;-81.378;2024-03-17T02:21:57;0.60;;;0.60;;
49444;SDS011;35323;43.080;-81.378;2024-03-17T02:24:23;0.30;;;0.30;;
49444;SDS011;35323;43.080;-81.378;2024-03-17T02:26:49;1.30;;;0.63;;
49444;SDS011;35323;43.080;-81.378;2024-03-17T02:29:16;0.57;;;0.55;;
49444;SDS011;35323;43.080;-81.378;2024-03-17T02:31:42;0.88;;;0.75;;
49444;SDS011;35323;43.080;-81.378;2024-03-17T02:34:08;0.57;;;0.57;;
49444;SDS011;35323;43.080;-81.378;2024-03-17T02:36:35;0.50;;;0.50;;
49444;SDS011;35323;43.080;-81.378;2024-03-17T02:39:01;2.70;;;0.73;;
49444;SDS011;35323;43.080;-81.378;2024-03-17T02:41:46;0.40;;;0.40;;
49444;SDS011;35323;43.080;-81.378;2024-03-17T02:44:12;0.82;;;0.52;;
49444;SDS011;35323;43.080;-81.378;2024-03-17T02:46:38;0.60;;;0.47;;
49444;SDS011;35323;43.080;-81.378;2024-03-17T02:49:05;0.40;;;0.40;;
49444;SDS011;35323;43.080;-81.378;2024-03-17T02:51:33;2.38;;;0.95;;
49444;SDS011;35323;43.080;-81.378;2024-03-17T02:53:59;0.85;;;0.65;;
49444;SDS011;35323;43.080;-81.378;2024-03-17T02:56:26;1.67;;;1.58;;
49444;SDS011;35323;43.080;-81.378;2024-03-17T02:58:53;0.65;;;0.65;;
49444;SDS011;35323;43.080;-81.378;2024-03-17T03:01:20;2.10;;;0.82;;
49444;SDS011;35323;43.080;-81.378;2024-03-17T03:03:46;0.63;;;0.63;;
49444;SDS011;35323;43.080;-81.378;2024-03-17T03:06:13;1.00;;;1.00;;
49444;SDS011;35323;43.080;-81.378;2024-03-17T03:08:39;1.13;;;0.70;;
49444;SDS011;35323;43.080;-81.378;2024-03-17T03:11:07;1.08;;;1.02;;
49444;SDS011;35323;43.080;-81.378;2024-03-17T03:13:40;4.82;;;1.42;;
49444;SDS011;35323;43.080;-81.378;2024-03-17T03:16:07;0.43;;;0.43;;
49444;SDS011;35323;43.080;-81.378;2024-03-17T03:18:34;1.00;;;0.55;;
49444;SDS011;35323;43.080;-81.378;2024-03-17T03:21:00;0.98;;;0.98;;
49444;SDS011;35323;43.080;-81.378;2024-03-17T03:23:26;1.48;;;0.77;;
49444;SDS011;35323;43.080;-81.378;2024-03-17T03:25:56;0.30;;;0.30;;
49444;SDS011;35323;43.080;-81.378;2024-03-17T03:28:23;0.43;;;0.43;;
49444;SDS011;35323;43.080;-81.378;2024-03-17T03:30:49;0.82;;;0.82;;
49444;SDS011;35323;43.080;-81.378;2024-03-17T03:33:16;1.33;;;1.25;;
49444;SDS011;35323;43.080;-81.378;2024-03-17T03:35:46;1.65;;;0.60;;
49444;SDS011;35323;43.080;-81.378;2024-03-17T03:38:12;0.80;;;0.47;;
49444;SDS011;35323;43.080;-81.378;2024-03-17T03:40:42;0.98;;;0.98;;
49444;SDS011;35323;43.080;-81.378;2024-03-17T03:43:09;0.70;;;0.70;;
49444;SDS011;35323;43.080;-81.378;2024-03-17T03:45:36;0.30;;;0.30;;
49444;SDS011;35323;43.080;-81.378;2024-03-17T03:48:03;0.68;;;0.68;;
49444;SDS011;35323;43.080;-81.378;2024-03-17T03:50:29;1.33;;;0.98;;
49444;SDS011;35323;43.080;-81.378;2024-03-17T03:52:56;0.65;;;0.65;;
49444;SDS011;35323;43.080;-81.378;2024-03-17T03:55:22;0.57;;;0.57;;
49444;SDS011;35323;43.080;-81.378;2024-03-17T03:57:49;1.17;;;1.00;;
49444;SDS011;35323;43.080;-81.378;2024-03-17T04:00:18;0.40;;;0.40;;
49444;SDS011;35323;43.080;-81.378;2024-03-17T04:02:51;1.35;;;0.70;;
49444;SDS011;35323;43.080;-81.378;2024-03-17T04:05:18;0.98;;;0.98;;
49444;SDS011;35323;43.080;-81.378;2024-03-17T04:07:45;1.17;;;0.68;;
49444;SDS011;35323;43.080;-81.378;2024-03-17T04:10:12;1.75;;;0.95;;
49444;SDS011;35323;43.080;-81.378;2024-03-17T04:12:38;0.55;;;0.55;;
49444;SDS011;35323;43.080;-81.378;2024-03-17T04:15:05;0.50;;;0.50;;
49444;SDS011;35323;43.080;-81.378;2024-03-17T04:17:32;0.52;;;0.52;;
49444;SDS011;35323;43.080;-81.378;2024-03-17T04:19:58;1.45;;;0.98;;
49444;SDS011;35323;43.080;-81.378;2024-03-17T04:22:25;0.47;;;0.40;;
49444;SDS011;35323;43.080;-81.378;2024-03-17T04:24:52;1.65;;;0.47;;
49444;SDS011;35323;43.080;-81.378;2024-03-17T04:27:22;0.52;;;0.52;;
49444;SDS011;35323;43.080;-81.378;2024-03-17T04:29:49;0.30;;;0.30;;
49444;SDS011;35323;43.080;-81.378;2024-03-17T04:32:15;0.65;;;0.57;;
49444;SDS011;35323;43.080;-81.378;2024-03-17T04:34:41;0.50;;;0.50;;
49444;SDS011;35323;43.080;-81.378;2024-03-17T04:37:10;0.60;;;0.60;;
49444;SDS011;35323;43.080;-81.378;2024-03-17T04:39:43;0.73;;;0.50;;
49444;SDS011;35323;43.080;-81.378;2024-03-17T04:42:14;0.60;;;0.57;;
49444;SDS011;35323;43.080;-81.378;2024-03-17T04:44:40;0.40;;;0.40;;
49444;SDS011;35323;43.080;-81.378;2024-03-17T04:47:07;1.85;;;0.77;;
49444;SDS011;35323;43.080;-81.378;2024-03-17T04:49:37;1.17;;;1.02;;
49444;SDS011;35323;43.080;-81.378;2024-03-17T04:52:04;0.57;;;0.57;;
49444;SDS011;35323;43.080;-81.378;2024-03-17T04:54:33;0.75;;;0.75;;
49444;SDS011;35323;43.080;-81.378;2024-03-17T04:57:00;5.60;;;0.98;;
49444;SDS011;35323;43.080;-81.378;2024-03-17T04:59:27;2.72;;;2.53;;
49444;SDS011;35323;43.080;-81.378;2024-03-17T05:01:53;1.10;;;0.90;;
49444;SDS011;35323;43.080;-81.378;2024-03-17T05:04:19;1.80;;;0.88;;
49444;SDS011;35323;43.080;-81.378;2024-03-17T05:06:46;0.80;;;0.80;;
49444;SDS011;35323;43.080;-81.378;2024-03-17T05:09:13;1.63;;;1.10;;
49444;SDS011;35323;43.080;-81.378;2024-03-17T05:11:39;1.13;;;1.10;;
49444;SDS011;35323;43.080;-81.378;2024-03-17T05:14:06;0.57;;;0.57;;
49444;SDS011;35323;43.080;-81.378;2024-03-17T05:16:32;1.88;;;1.30;;
49444;SDS011;35323;43.080;-81.378;2024-03-17T05:18:58;1.60;;;0.68;;
49444;SDS011;35323;43.080;-81.378;2024-03-17T05:21:24;1.55;;;0.80;;
49444;SDS011;35323;43.080;-81.378;2024-03-17T05:23:51;0.95;;;0.95;;
49444;SDS011;35323;43.080;-81.378;2024-03-17T05:26:18;1.25;;;0.77;;
49444;SDS011;35323;43.080;-81.378;2024-03-17T05:28:44;0.50;;;0.50;;
49444;SDS011;35323;43.080;-81.378;2024-03-17T05:31:10;1.90;;;1.00;;
49444;SDS011;35323;43.080;-81.378;2024-03-17T05:33:41;0.40;;;0.40;;
49444;SDS011;35323;43.080;-81.378;2024-03-17T05:36:07;0.40;;;0.40;;
49444;SDS011;35323;43.080;-81.378;2024-03-17T05:38:33;0.20;;;0.20;;
49444;SDS011;35323;43.080;-81.378;2024-03-17T05:41:00;0.50;;;0.50;;
49444;SDS011;35323;43.080;-81.378;2024-03-17T05:43:27;1.55;;;1.13;;
49444;SDS011;35323;43.080;-81.378;2024-03-17T05:45:54;0.57;;;0.57;;
49444;SDS011;35323;43.080;-81.378;2024-03-17T05:48:23;1.65;;;0.47;;
49444;SDS011;35323;43.080;-81.378;2024-03-17T05:50:51;0.45;;;0.45;;
49444;SDS011;35323;43.080;-81.378;2024-03-17T05:53:22;0.47;;;0.47;;
49444;SDS011;35323;43.080;-81.378;2024-03-17T05:55:50;1.00;;;1.00;;
49444;SDS011;35323;43.080;-81.378;2024-03-17T05:58:16;0.82;;;0.82;;
49444;SDS011;35323;43.080;-81.378;2024-03-17T06:00:42;0.73;;;0.73;;
49444;SDS011;35323;43.080;-81.378;2024-03-17T06:03:09;0.15;;;0.15;;
49444;SDS011;35323;43.080;-81.378;2024-03-17T06:05:36;0.80;;;0.77;;
49444;SDS011;35323;43.080;-81.378;2024-03-17T06:08:04;0.55;;;0.47;;
49444;SDS011;35323;43.080;-81.378;2024-03-17T06:10:31;0.40;;;0.40;;
49444;SDS011;35323;43.080;-81.378;2024-03-17T06:13:00;0.30;;;0.30;;
49444;SDS011;35323;43.080;-81.378;2024-03-17T06:15:27;0.90;;;0.40;;
49444;SDS011;35323;43.080;-81.378;2024-03-17T06:17:53;0.45;;;0.45;;
49444;SDS011;35323;43.080;-81.378;2024-03-17T06:20:20;0.32;;;0.32;;
49444;SDS011;35323;43.080;-81.378;2024-03-17T06:22:47;0.70;;;0.70;;
49444;SDS011;35323;43.080;-81.378;2024-03-17T06:25:13;0.38;;;0.38;;
49444;SDS011;35323;43.080;-81.378;2024-03-17T06:27:39;1.05;;;0.85;;
49444;SDS011;35323;43.080;-81.378;2024-03-17T06:30:06;0.52;;;0.40;;
49444;SDS011;35323;43.080;-81.378;2024-03-17T06:32:33;0.30;;;0.30;;
49444;SDS011;35323;43.080;-81.378;2024-03-17T06:35:01;0.40;;;0.40;;
49444;SDS011;35323;43.080;-81.378;2024-03-17T06:37:27;0.20;;;0.20;;
49444;SDS011;35323;43.080;-81.378;2024-03-17T06:39:54;1.13;;;0.73;;
49444;SDS011;35323;43.080;-81.378;2024-03-17T06:42:20;0.30;;;0.30;;
49444;SDS011;35323;43.080;-81.378;2024-03-17T06:44:46;0.30;;;0.30;;
49444;SDS011;35323;43.080;-81.378;2024-03-17T06:47:13;0.30;;;0.30;;
49444;SDS011;35323;43.080;-81.378;2024-03-17T06:49:39;1.88;;;0.40;;
49444;SDS011;35323;43.080;-81.378;2024-03-17T06:52:06;1.55;;;0.50;;
49444;SDS011;35323;43.080;-81.378;2024-03-17T06:54:32;0.50;;;0.50;;
49444;SDS011;35323;43.080;-81.378;2024-03-17T06:56:59;1.27;;;0.55;;
49444;SDS011;35323;43.080;-81.378;2024-03-17T06:59:25;0.50;;;0.50;;
49444;SDS011;35323;43.080;-81.378;2024-03-17T07:01:52;0.30;;;0.30;;
49444;SDS011;35323;43.080;-81.378;2024-03-17T07:04:18;0.47;;;0.47;;
49444;SDS011;35323;43.080;-81.378;2024-03-17T07:06:46;0.28;;;0.28;;
49444;SDS011;35323;43.080;-81.378;2024-03-17T07:09:12;0.20;;;0.20;;
49444;SDS011;35323;43.080;-81.378;2024-03-17T07:11:39;0.20;;;0.20;;
49444;SDS011;35323;43.080;-81.378;2024-03-17T07:14:05;0.20;;;0.20;;
49444;SDS011;35323;43.080;-81.378;2024-03-17T07:16:31;0.50;;;0.50;;
49444;SDS011;35323;43.080;-81.378;2024-03-17T07:18:57;0.68;;;0.68;;
49444;SDS011;35323;43.080;-81.378;2024-03-17T07:21:25;0.50;;;0.50;;
49444;SDS011;35323;43.080;-81.378;2024-03-17T07:23:51;1.38;;;0.40;;
49444;SDS011;35323;43.080;-81.378;2024-03-17T07:26:18;0.30;;;0.30;;
49444;SDS011;35323;43.080;-81.378;2024-03-17T07:28:44;0.47;;;0.47;;
49444;SDS011;35323;43.080;-81.378;2024-03-17T07:31:10;0.40;;;0.40;;
49444;SDS011;35323;43.080;-81.378;2024-03-17T07:33:37;1.38;;;0.82;;
49444;SDS011;35323;43.080;-81.378;2024-03-17T07:36:03;0.55;;;0.50;;
49444;SDS011;35323;43.080;-81.378;2024-03-17T07:38:31;0.82;;;0.50;;
49444;SDS011;35323;43.080;-81.378;2024-03-17T07:41:01;0.30;;;0.30;;
49444;SDS011;35323;43.080;-81.378;2024-03-17T07:43:28;2.92;;;0.93;;
49444;SDS011;35323;43.080;-81.378;2024-03-17T07:45:58;0.20;;;0.20;;
49444;SDS011;35323;43.080;-81.378;2024-03-17T07:48:25;0.75;;;0.47;;
49444;SDS011;35323;43.080;-81.378;2024-03-17T07:50:55;0.57;;;0.57;;
49444;SDS011;35323;43.080;-81.378;2024-03-17T07:53:21;0.40;;;0.40;;
49444;SDS011;35323;43.080;-81.378;2024-03-17T07:55:47;0.40;;;0.40;;
49444;SDS011;35323;43.080;-81.378;2024-03-17T07:58:22;0.20;;;0.20;;
49444;SDS011;35323;43.080;-81.378;2024-03-17T08:00:48;0.25;;;0.25;;
49444;SDS011;35323;43.080;-81.378;2024-03-17T08:03:14;0.50;;;0.50;;
49444;SDS011;35323;43.080;-81.378;2024-03-17T08:05:40;1.38;;;0.55;;
49444;SDS011;35323;43.080;-81.378;2024-03-17T08:08:08;0.30;;;0.30;;
49444;SDS011;35323;43.080;-81.378;2024-03-17T08:10:37;0.20;;;0.20;;
49444;SDS011;35323;43.080;-81.378;2024-03-17T08:13:04;1.35;;;0.50;;
49444;SDS011;35323;43.080;-81.378;2024-03-17T08:15:31;0.43;;;0.35;;
49444;SDS011;35323;43.080;-81.378;2024-03-17T08:17:57;0.15;;;0.15;;
49444;SDS011;35323;43.080;-81.378;2024-03-17T08:20:23;0.50;;;0.50;;
49444;SDS011;35323;43.080;-81.378;2024-03-17T08:22:50;0.30;;;0.30;;
49444;SDS011;35323;43.080;-81.378;2024-03-17T08:25:16;0.50;;;0.50;;
49444;SDS011;35323;43.080;-81.378;2024-03-17T08:27:42;1.02;;;0.43;;
49444;SDS011;35323;43.080;-81.378;2024-03-17T08:30:09;0.10;;;0.10;;
49444;SDS011;35323;43.080;-81.378;2024-03-17T08:32:39;0.30;;;0.30;;
49444;SDS011;35323;43.080;-81.378;2024-03-17T08:35:06;0.52;;;0.52;;
49444;SDS011;35323;43.080;-81.378;2024-03-17T08:37:35;0.50;;;0.50;;
49444;SDS011;35323;43.080;-81.378;2024-03-17T08:40:01;0.30;;;0.30;;
49444;SDS011;35323;43.080;-81.378;2024-03-17T08:42:28;0.20;;;0.20;;
49444;SDS011;35323;43.080;-81.378;2024-03-17T08:44:54;0.43;;;0.43;;
49444;SDS011;35323;43.080;-81.378;2024-03-17T08:47:20;0.55;;;0.40;;
49444;SDS011;35323;43.080;-81.378;2024-03-17T08:49:46;0.40;;;0.40;;
49444;SDS011;35323;43.080;-81.378;2024-03-17T08:52:12;0.25;;;0.25;;
49444;SDS011;35323;43.080;-81.378;2024-03-17T08:54:39;0.22;;;0.22;;
49444;SDS011;35323;43.080;-81.378;2024-03-17T08:57:05;0.22;;;0.22;;
49444;SDS011;35323;43.080;-81.378;2024-03-17T08:59:31;0.20;;;0.20;;
49444;SDS011;35323;43.080;-81.378;2024-03-17T09:01:57;0.93;;;0.35;;
49444;SDS011;35323;43.080;-81.378;2024-03-17T09:04:24;0.30;;;0.30;;
49444;SDS011;35323;43.080;-81.378;2024-03-17T09:06:50;0.57;;;0.50;;
49444;SDS011;35323;43.080;-81.378;2024-03-17T09:09:19;0.22;;;0.22;;
49444;SDS011;35323;43.080;-81.378;2024-03-17T09:11:46;0.85;;;0.85;;
49444;SDS011;35323;43.080;-81.378;2024-03-17T09:14:12;0.60;;;0.60;;
49444;SDS011;35323;43.080;-81.378;2024-03-17T09:16:38;0.30;;;0.30;;
49444;SDS011;35323;43.080;-81.378;2024-03-17T09:19:04;0.32;;;0.32;;
49444;SDS011;35323;43.080;-81.378;2024-03-17T09:21:30;0.20;;;0.20;;
49444;SDS011;35323;43.080;-81.378;2024-03-17T09:23:57;0.50;;;0.50;;
49444;SDS011;35323;43.080;-81.378;2024-03-17T09:26:25;0.20;;;0.20;;
49444;SDS011;35323;43.080;-81.378;2024-03-17T09:28:51;0.30;;;0.30;;
49444;SDS011;35323;43.080;-81.378;2024-03-17T09:31:18;0.28;;;0.28;;
49444;SDS011;35323;43.080;-81.378;2024-03-17T09:33:45;0.30;;;0.30;;
49444;SDS011;35323;43.080;-81.378;2024-03-17T09:36:11;0.30;;;0.30;;
49444;SDS011;35323;43.080;-81.378;2024-03-17T09:38:39;0.40;;;0.40;;
49444;SDS011;35323;43.080;-81.378;2024-03-17T09:41:06;0.35;;;0.35;;
49444;SDS011;35323;43.080;-81.378;2024-03-17T09:43:33;0.20;;;0.20;;
49444;SDS011;35323;43.080;-81.378;2024-03-17T09:46:03;0.30;;;0.30;;
49444;SDS011;35323;43.080;-81.378;2024-03-17T09:48:29;0.32;;;0.32;;
49444;SDS011;35323;43.080;-81.378;2024-03-17T09:50:56;0.32;;;0.32;;
49444;SDS011;35323;43.080;-81.378;2024-03-17T09:53:24;0.20;;;0.20;;
49444;SDS011;35323;43.080;-81.378;2024-03-17T09:55:51;0.68;;;0.68;;
49444;SDS011;35323;43.080;-81.378;2024-03-17T09:58:19;0.47;;;0.47;;
49444;SDS011;35323;43.080;-81.378;2024-03-17T10:00:45;0.88;;;0.80;;
49444;SDS011;35323;43.080;-81.378;2024-03-17T10:03:12;0.40;;;0.40;;
49444;SDS011;35323;43.080;-81.378;2024-03-17T10:05:39;0.20;;;0.20;;
49444;SDS011;35323;43.080;-81.378;2024-03-17T10:08:05;0.20;;;0.20;;
49444;SDS011;35323;43.080;-81.378;2024-03-17T10:10:31;1.17;;;0.45;;
49444;SDS011;35323;43.080;-81.378;2024-03-17T10:12:58;0.20;;;0.20;;
49444;SDS011;35323;43.080;-81.378;2024-03-17T10:15:26;0.30;;;0.30;;
49444;SDS011;35323;43.080;-81.378;2024-03-17T10:17:53;0.30;;;0.30;;
49444;SDS011;35323;43.080;-81.378;2024-03-17T10:20:21;0.25;;;0.25;;
49444;SDS011;35323;43.080;-81.378;2024-03-17T10:23:02;0.20;;;0.20;;
49444;SDS011;35323;43.080;-81.378;2024-03-17T10:25:30;0.40;;;0.40;;
49444;SDS011;35323;43.080;-81.378;2024-03-17T10:27:57;0.20;;;0.20;;
49444;SDS011;35323;43.080;-81.378;2024-03-17T10:30:24;0.30;;;0.30;;
49444;SDS011;35323;43.080;-81.378;2024-03-17T10:32:52;0.20;;;0.20;;
49444;SDS011;35323;43.080;-81.378;2024-03-17T10:35:33;0.38;;;0.38;;
49444;SDS011;35323;43.080;-81.378;2024-03-17T10:38:00;0.20;;;0.20;;
49444;SDS011;35323;43.080;-81.378;2024-03-17T10:40:27;0.20;;;0.20;;
49444;SDS011;35323;43.080;-81.378;2024-03-17T10:42:55;0.20;;;0.20;;
49444;SDS011;35323;43.080;-81.378;2024-03-17T10:45:22;0.20;;;0.20;;
49444;SDS011;35323;43.080;-81.378;2024-03-17T10:47:49;0.40;;;0.40;;
49444;SDS011;35323;43.080;-81.378;2024-03-17T10:50:16;0.20;;;0.20;;
49444;SDS011;35323;43.080;-81.378;2024-03-17T10:52:47;1.02;;;0.63;;
49444;SDS011;35323;43.080;-81.378;2024-03-17T10:55:26;0.50;;;0.50;;
49444;SDS011;35323;43.080;-81.378;2024-03-17T10:57:53;0.28;;;0.28;;
49444;SDS011;35323;43.080;-81.378;2024-03-17T11:00:21;0.30;;;0.30;;
49444;SDS011;35323;43.080;-81.378;2024-03-17T11:02:51;0.60;;;0.60;;
49444;SDS011;35323;43.080;-81.378;2024-03-17T11:05:22;0.20;;;0.20;;
49444;SDS011;35323;43.080;-81.378;2024-03-17T11:07:49;0.68;;;0.68;;
49444;SDS011;35323;43.080;-81.378;2024-03-17T11:10:17;0.20;;;0.20;;
49444;SDS011;35323;43.080;-81.378;2024-03-17T11:12:49;0.30;;;0.30;;
49444;SDS011;35323;43.080;-81.378;2024-03-17T11:17:48;0.30;;;0.30;;
49444;SDS011;35323;43.080;-81.378;2024-03-17T11:20:21;0.38;;;0.38;;
49444;SDS011;35323;43.080;-81.378;2024-03-17T11:28:05;0.30;;;0.30;;
49444;SDS011;35323;43.080;-81.378;2024-03-17T11:41:45;0.30;;;0.30;;
49444;SDS011;35323;43.080;-81.378;2024-03-17T11:47:06;1.45;;;0.40;;
49444;SDS011;35323;43.080;-81.378;2024-03-17T11:52:08;0.20;;;0.20;;
49444;SDS011;35323;43.080;-81.378;2024-03-17T11:54:35;0.30;;;0.30;;
49444;SDS011;35323;43.080;-81.378;2024-03-17T11:59:27;0.30;;;0.30;;
49444;SDS011;35323;43.080;-81.378;2024-03-17T12:01:54;3.25;;;0.40;;
49444;SDS011;35323;43.080;-81.378;2024-03-17T12:04:21;1.25;;;0.45;;
49444;SDS011;35323;43.080;-81.378;2024-03-17T12:06:51;0.20;;;0.20;;
49444;SDS011;35323;43.080;-81.378;2024-03-17T12:09:21;0.50;;;0.50;;
49444;SDS011;35323;43.080;-81.378;2024-03-17T12:12:07;0.28;;;0.28;;
49444;SDS011;35323;43.080;-81.378;2024-03-17T12:14:37;0.30;;;0.30;;
49444;SDS011;35323;43.080;-81.378;2024-03-17T12:19:30;0.40;;;0.40;;
49444;SDS011;35323;43.080;-81.378;2024-03-17T12:22:00;0.40;;;0.40;;
49444;SDS011;35323;43.080;-81.378;2024-03-17T12:24:27;0.28;;;0.28;;
49444;SDS011;35323;43.080;-81.378;2024-03-17T12:26:56;0.70;;;0.70;;
49444;SDS011;35323;43.080;-81.378;2024-03-17T12:29:23;0.50;;;0.50;;
49444;SDS011;35323;43.080;-81.378;2024-03-17T12:31:51;0.28;;;0.28;;
49444;SDS011;35323;43.080;-81.378;2024-03-17T12:34:18;0.30;;;0.30;;
49444;SDS011;35323;43.080;-81.378;2024-03-17T12:36:45;0.35;;;0.35;;
49444;SDS011;35323;43.080;-81.378;2024-03-17T12:41:45;0.32;;;0.32;;
49444;SDS011;35323;43.080;-81.378;2024-03-17T12:44:21;0.50;;;0.50;;
49444;SDS011;35323;43.080;-81.378;2024-03-17T12:46:48;0.20;;;0.20;;
49444;SDS011;35323;43.080;-81.378;2024-03-17T12:49:14;0.20;;;0.20;;
49444;SDS011;35323;43.080;-81.378;2024-03-17T12:51:40;0.20;;;0.20;;
49444;SDS011;35323;43.080;-81.378;2024-03-17T12:54:13;0.20;;;0.20;;
49444;SDS011;35323;43.080;-81.378;2024-03-17T12:56:40;0.30;;;0.30;;
49444;SDS011;35323;43.080;-81.378;2024-03-17T12:59:24;0.32;;;0.32;;
49444;SDS011;35323;43.080;-81.378;2024-03-17T13:02:11;0.80;;;0.80;;
49444;SDS011;35323;43.080;-81.378;2024-03-17T13:04:38;0.35;;;0.32;;
49444;SDS011;35323;43.080;-81.378;2024-03-17T13:07:11;0.65;;;0.65;;
49444;SDS011;35323;43.080;-81.378;2024-03-17T13:09:37;0.55;;;0.55;;
49444;SDS011;35323;43.080;-81.378;2024-03-17T13:12:12;0.20;;;0.20;;
49444;SDS011;35323;43.080;-81.378;2024-03-17T13:14:39;0.20;;;0.20;;
49444;SDS011;35323;43.080;-81.378;2024-03-17T13:17:06;1.20;;;1.10;;
49444;SDS011;35323;43.080;-81.378;2024-03-17T13:19:33;0.52;;;0.52;;
49444;SDS011;35323;43.080;-81.378;2024-03-17T13:22:01;0.85;;;0.40;;
49444;SDS011;35323;43.080;-81.378;2024-03-17T13:24:28;0.30;;;0.30;;
49444;SDS011;35323;43.080;-81.378;2024-03-17T13:26:54;0.52;;;0.52;;
49444;SDS011;35323;43.080;-81.378;2024-03-17T13:29:24;0.20;;;0.20;;
49444;SDS011;35323;43.080;-81.378;2024-03-17T13:31:50;0.60;;;0.60;;
49444;SDS011;35323;43.080;-81.378;2024-03-17T13:34:17;0.38;;;0.38;;
49444;SDS011;35323;43.080;-81.378;2024-03-17T13:36:43;0.20;;;0.20;;
49444;SDS011;35323;43.080;-81.378;2024-03-17T13:39:11;0.28;;;0.28;;
49444;SDS011;35323;43.080;-81.378;2024-03-17T13:41:37;0.20;;;0.20;;
49444;SDS011;35323;43.080;-81.378;2024-03-17T13:44:04;0.82;;;0.60;;
49444;SDS011;35323;43.080;-81.378;2024-03-17T13:46:30;0.20;;;0.20;;
49444;SDS011;35323;43.080;-81.378;2024-03-17T13:48:57;0.25;;;0.25;;
49444;SDS011;35323;43.080;-81.378;2024-03-17T13:51:32;0.22;;;0.22;;
49444;SDS011;35323;43.080;-81.378;2024-03-17T13:53:58;0.20;;;0.20;;
49444;SDS011;35323;43.080;-81.378;2024-03-17T13:56:24;0.40;;;0.40;;
49444;SDS011;35323;43.080;-81.378;2024-03-17T13:58:51;0.20;;;0.20;;
49444;SDS011;35323;43.080;-81.378;2024-03-17T14:01:17;0.30;;;0.30;;
49444;SDS011;35323;43.080;-81.378;2024-03-17T14:03:43;0.43;;;0.43;;
49444;SDS011;35323;43.080;-81.378;2024-03-17T14:06:10;0.30;;;0.30;;
49444;SDS011;35323;43.080;-81.378;2024-03-17T14:08:36;0.20;;;0.20;;
49444;SDS011;35323;43.080;-81.378;2024-03-17T14:11:02;0.22;;;0.22;;
49444;SDS011;35323;43.080;-81.378;2024-03-17T14:13:30;0.30;;;0.30;;
49444;SDS011;35323;43.080;-81.378;2024-03-17T14:15:56;0.22;;;0.22;;
49444;SDS011;35323;43.080;-81.378;2024-03-17T14:18:23;0.73;;;0.73;;
49444;SDS011;35323;43.080;-81.378;2024-03-17T14:20:49;0.40;;;0.40;;
49444;SDS011;35323;43.080;-81.378;2024-03-17T14:23:16;0.20;;;0.20;;
49444;SDS011;35323;43.080;-81.378;2024-03-17T14:25:42;0.20;;;0.20;;
49444;SDS011;35323;43.080;-81.378;2024-03-17T14:28:09;0.43;;;0.43;;
49444;SDS011;35323;43.080;-81.378;2024-03-17T14:30:35;0.20;;;0.20;;
49444;SDS011;35323;43.080;-81.378;2024-03-17T14:33:02;0.25;;;0.25;;
49444;SDS011;35323;43.080;-81.378;2024-03-17T14:35:31;0.20;;;0.20;;
49444;SDS011;35323;43.080;-81.378;2024-03-17T14:37:58;0.30;;;0.30;;
49444;SDS011;35323;43.080;-81.378;2024-03-17T14:40:25;0.20;;;0.20;;
49444;SDS011;35323;43.080;-81.378;2024-03-17T14:42:54;0.20;;;0.20;;
49444;SDS011;35323;43.080;-81.378;2024-03-17T14:45:24;0.63;;;0.63;;
49444;SDS011;35323;43.080;-81.378;2024-03-17T14:47:50;0.20;;;0.20;;
49444;SDS011;35323;43.080;-81.378;2024-03-17T14:50:17;0.30;;;0.30;;
49444;SDS011;35323;43.080;-81.378;2024-03-17T14:52:44;0.20;;;0.20;;
49444;SDS011;35323;43.080;-81.378;2024-03-17T14:55:11;0.30;;;0.30;;
49444;SDS011;35323;43.080;-81.378;2024-03-17T14:57:37;0.20;;;0.20;;